sensor_id;sensor_type;location;lat;lon;timestamp;P1;durP1;ratioP1;P2;durP2;ratioP2
6878;SDS011;3478;51.462;7.338;2022-12-13T00:03:13;30.13;;;16.60;;
6878;SDS011;3478;51.462;7.338;2022-12-13T00:08:16;27.80;;;17.90;;
6878;SDS011;3478;51.462;7.338;2022-12-13T00:13:18;26.40;;;15.20;;
6878;SDS011;3478;51.462;7.338;2022-12-13T00:18:20;26.83;;;16.30;;
6878;SDS011;3478;51.462;7.338;2022-12-13T00:23:23;27.23;;;17.03;;
6878;SDS011;3478;51.462;7.338;2022-12-13T00:28:25;27.77;;;15.73;;
6878;SDS011;3478;51.462;7.338;2022-12-13T00:33:27;24.00;;;15.50;;
6878;SDS011;3478;51.462;7.338;2022-12-13T00:38:31;24.77;;;14.73;;
6878;SDS011;3478;51.462;7.338;2022-12-13T00:43:33;27.27;;;15.90;;
6878;SDS011;3478;51.462;7.338;2022-12-13T00:48:35;28.60;;;16.43;;
6878;SDS011;3478;51.462;7.338;2022-12-13T00:53:38;29.47;;;16.53;;
6878;SDS011;3478;51.462;7.338;2022-12-13T00:58:40;21.83;;;14.77;;
6878;SDS011;3478;51.462;7.338;2022-12-13T01:03:42;30.50;;;17.20;;
6878;SDS011;3478;51.462;7.338;2022-12-13T01:08:46;30.83;;;15.27;;
6878;SDS011;3478;51.462;7.338;2022-12-13T01:13:48;31.07;;;16.63;;
6878;SDS011;3478;51.462;7.338;2022-12-13T01:18:50;29.73;;;17.00;;
6878;SDS011;3478;51.462;7.338;2022-12-13T01:23:53;29.87;;;18.27;;
6878;SDS011;3478;51.462;7.338;2022-12-13T01:29:00;30.93;;;17.50;;
6878;SDS011;3478;51.462;7.338;2022-12-13T01:34:04;32.87;;;17.80;;
6878;SDS011;3478;51.462;7.338;2022-12-13T01:39:11;27.53;;;16.57;;
6878;SDS011;3478;51.462;7.338;2022-12-13T01:49:59;32.20;;;16.90;;
6878;SDS011;3478;51.462;7.338;2022-12-13T01:55:06;31.43;;;16.87;;
6878;SDS011;3478;51.462;7.338;2022-12-13T02:00:09;29.60;;;16.10;;
6878;SDS011;3478;51.462;7.338;2022-12-13T02:05:12;33.30;;;17.10;;
6878;SDS011;3478;51.462;7.338;2022-12-13T02:10:22;34.40;;;18.80;;
6878;SDS011;3478;51.462;7.338;2022-12-13T02:15:24;33.30;;;18.30;;
6878;SDS011;3478;51.462;7.338;2022-12-13T02:20:42;27.10;;;16.80;;
6878;SDS011;3478;51.462;7.338;2022-12-13T02:26:17;26.60;;;15.73;;
6878;SDS011;3478;51.462;7.338;2022-12-13T02:31:41;31.90;;;15.87;;
6878;SDS011;3478;51.462;7.338;2022-12-13T02:36:52;36.63;;;18.00;;
6878;SDS011;3478;51.462;7.338;2022-12-13T02:41:59;27.17;;;15.07;;
6878;SDS011;3478;51.462;7.338;2022-12-13T02:47:07;29.37;;;15.80;;
6878;SDS011;3478;51.462;7.338;2022-12-13T02:52:12;31.97;;;16.83;;
6878;SDS011;3478;51.462;7.338;2022-12-13T02:57:27;28.13;;;16.03;;
6878;SDS011;3478;51.462;7.338;2022-12-13T03:02:35;33.00;;;17.07;;
6878;SDS011;3478;51.462;7.338;2022-12-13T03:07:50;22.97;;;15.70;;
6878;SDS011;3478;51.462;7.338;2022-12-13T03:13:06;32.70;;;15.87;;
6878;SDS011;3478;51.462;7.338;2022-12-13T03:18:32;25.17;;;14.97;;
6878;SDS011;3478;51.462;7.338;2022-12-13T03:23:35;23.70;;;16.00;;
6878;SDS011;3478;51.462;7.338;2022-12-13T03:28:37;27.77;;;15.03;;
6878;SDS011;3478;51.462;7.338;2022-12-13T03:33:41;25.63;;;15.40;;
6878;SDS011;3478;51.462;7.338;2022-12-13T03:38:43;27.27;;;14.47;;
6878;SDS011;3478;51.462;7.338;2022-12-13T03:43:46;32.70;;;16.77;;
6878;SDS011;3478;51.462;7.338;2022-12-13T03:48:49;27.23;;;15.73;;
6878;SDS011;3478;51.462;7.338;2022-12-13T03:53:51;23.63;;;13.97;;
6878;SDS011;3478;51.462;7.338;2022-12-13T03:58:53;28.53;;;15.20;;
6878;SDS011;3478;51.462;7.338;2022-12-13T04:03:56;25.63;;;15.77;;
6878;SDS011;3478;51.462;7.338;2022-12-13T04:08:58;28.80;;;15.00;;
6878;SDS011;3478;51.462;7.338;2022-12-13T04:14:00;23.67;;;16.00;;
6878;SDS011;3478;51.462;7.338;2022-12-13T04:19:03;31.70;;;15.53;;
6878;SDS011;3478;51.462;7.338;2022-12-13T04:24:05;21.13;;;14.33;;
6878;SDS011;3478;51.462;7.338;2022-12-13T04:29:07;27.53;;;13.20;;
6878;SDS011;3478;51.462;7.338;2022-12-13T04:34:10;26.07;;;14.07;;
6878;SDS011;3478;51.462;7.338;2022-12-13T04:39:12;22.60;;;14.43;;
6878;SDS011;3478;51.462;7.338;2022-12-13T04:44:14;25.83;;;14.40;;
6878;SDS011;3478;51.462;7.338;2022-12-13T04:49:17;26.00;;;15.23;;
6878;SDS011;3478;51.462;7.338;2022-12-13T04:54:19;21.80;;;13.63;;
6878;SDS011;3478;51.462;7.338;2022-12-13T04:59:21;23.53;;;13.67;;
6878;SDS011;3478;51.462;7.338;2022-12-13T05:04:24;28.43;;;16.13;;
6878;SDS011;3478;51.462;7.338;2022-12-13T05:09:26;19.60;;;12.60;;
6878;SDS011;3478;51.462;7.338;2022-12-13T05:14:28;25.17;;;14.60;;
6878;SDS011;3478;51.462;7.338;2022-12-13T05:19:31;26.47;;;15.20;;
6878;SDS011;3478;51.462;7.338;2022-12-13T05:24:33;29.07;;;13.57;;
6878;SDS011;3478;51.462;7.338;2022-12-13T05:29:35;22.03;;;13.07;;
6878;SDS011;3478;51.462;7.338;2022-12-13T05:34:39;27.50;;;12.50;;
6878;SDS011;3478;51.462;7.338;2022-12-13T05:39:41;24.43;;;13.63;;
6878;SDS011;3478;51.462;7.338;2022-12-13T05:44:42;25.10;;;13.40;;
6878;SDS011;3478;51.462;7.338;2022-12-13T05:49:46;23.80;;;13.13;;
6878;SDS011;3478;51.462;7.338;2022-12-13T05:54:47;20.33;;;12.33;;
6878;SDS011;3478;51.462;7.338;2022-12-13T05:59:54;38.67;;;19.13;;
6878;SDS011;3478;51.462;7.338;2022-12-13T06:04:57;36.90;;;17.07;;
6878;SDS011;3478;51.462;7.338;2022-12-13T06:09:59;23.67;;;13.70;;
6878;SDS011;3478;51.462;7.338;2022-12-13T06:15:01;22.30;;;13.10;;
6878;SDS011;3478;51.462;7.338;2022-12-13T06:20:07;23.77;;;13.07;;
6878;SDS011;3478;51.462;7.338;2022-12-13T06:25:09;23.00;;;13.17;;
6878;SDS011;3478;51.462;7.338;2022-12-13T06:30:11;24.20;;;14.70;;
6878;SDS011;3478;51.462;7.338;2022-12-13T06:35:15;23.93;;;14.13;;
6878;SDS011;3478;51.462;7.338;2022-12-13T06:40:17;28.43;;;13.77;;
6878;SDS011;3478;51.462;7.338;2022-12-13T06:45:19;26.93;;;14.83;;
6878;SDS011;3478;51.462;7.338;2022-12-13T06:50:22;23.63;;;14.23;;
6878;SDS011;3478;51.462;7.338;2022-12-13T06:55:24;20.70;;;14.13;;
6878;SDS011;3478;51.462;7.338;2022-12-13T07:00:26;25.97;;;14.37;;
6878;SDS011;3478;51.462;7.338;2022-12-13T07:05:29;27.13;;;15.07;;
6878;SDS011;3478;51.462;7.338;2022-12-13T07:10:31;27.00;;;14.77;;
6878;SDS011;3478;51.462;7.338;2022-12-13T07:15:33;24.20;;;14.00;;
6878;SDS011;3478;51.462;7.338;2022-12-13T07:20:38;21.83;;;13.10;;
6878;SDS011;3478;51.462;7.338;2022-12-13T07:25:40;21.13;;;13.70;;
6878;SDS011;3478;51.462;7.338;2022-12-13T07:30:42;27.17;;;13.97;;
6878;SDS011;3478;51.462;7.338;2022-12-13T07:35:47;26.33;;;14.83;;
6878;SDS011;3478;51.462;7.338;2022-12-13T07:40:48;22.03;;;13.43;;
6878;SDS011;3478;51.462;7.338;2022-12-13T07:45:50;25.30;;;14.87;;
6878;SDS011;3478;51.462;7.338;2022-12-13T07:50:59;26.30;;;15.10;;
6878;SDS011;3478;51.462;7.338;2022-12-13T07:56:02;25.17;;;13.27;;
6878;SDS011;3478;51.462;7.338;2022-12-13T08:01:06;33.90;;;15.13;;
6878;SDS011;3478;51.462;7.338;2022-12-13T08:06:12;26.90;;;14.40;;
6878;SDS011;3478;51.462;7.338;2022-12-13T08:11:14;26.37;;;14.03;;
6878;SDS011;3478;51.462;7.338;2022-12-13T08:16:16;29.70;;;17.43;;
6878;SDS011;3478;51.462;7.338;2022-12-13T08:21:19;26.17;;;16.30;;
6878;SDS011;3478;51.462;7.338;2022-12-13T08:26:22;21.60;;;14.30;;
6878;SDS011;3478;51.462;7.338;2022-12-13T08:31:24;25.30;;;14.67;;
6878;SDS011;3478;51.462;7.338;2022-12-13T08:36:27;29.87;;;15.63;;
6878;SDS011;3478;51.462;7.338;2022-12-13T08:41:29;27.83;;;14.93;;
6878;SDS011;3478;51.462;7.338;2022-12-13T08:46:31;25.13;;;17.00;;
6878;SDS011;3478;51.462;7.338;2022-12-13T08:51:34;30.20;;;16.20;;
6878;SDS011;3478;51.462;7.338;2022-12-13T08:56:36;31.57;;;17.83;;
6878;SDS011;3478;51.462;7.338;2022-12-13T09:01:38;23.47;;;14.73;;
6878;SDS011;3478;51.462;7.338;2022-12-13T09:06:42;26.67;;;15.47;;
6878;SDS011;3478;51.462;7.338;2022-12-13T09:11:44;21.27;;;15.00;;
6878;SDS011;3478;51.462;7.338;2022-12-13T09:16:45;22.77;;;14.70;;
6878;SDS011;3478;51.462;7.338;2022-12-13T09:21:49;22.03;;;14.70;;
6878;SDS011;3478;51.462;7.338;2022-12-13T09:26:50;25.20;;;15.90;;
6878;SDS011;3478;51.462;7.338;2022-12-13T09:31:52;28.07;;;16.20;;
6878;SDS011;3478;51.462;7.338;2022-12-13T09:36:55;23.70;;;14.10;;
6878;SDS011;3478;51.462;7.338;2022-12-13T09:41:58;22.47;;;15.13;;
6878;SDS011;3478;51.462;7.338;2022-12-13T09:47:01;26.20;;;14.70;;
6878;SDS011;3478;51.462;7.338;2022-12-13T09:52:09;29.80;;;15.30;;
6878;SDS011;3478;51.462;7.338;2022-12-13T09:57:16;24.80;;;15.10;;
6878;SDS011;3478;51.462;7.338;2022-12-13T10:02:21;22.33;;;15.30;;
6878;SDS011;3478;51.462;7.338;2022-12-13T10:07:26;22.83;;;14.90;;
6878;SDS011;3478;51.462;7.338;2022-12-13T10:12:28;24.80;;;13.70;;
6878;SDS011;3478;51.462;7.338;2022-12-13T10:17:33;26.53;;;16.60;;
6878;SDS011;3478;51.462;7.338;2022-12-13T10:22:40;26.23;;;15.77;;
6878;SDS011;3478;51.462;7.338;2022-12-13T10:27:42;34.87;;;17.37;;
6878;SDS011;3478;51.462;7.338;2022-12-13T10:32:49;31.53;;;18.30;;
6878;SDS011;3478;51.462;7.338;2022-12-13T10:37:56;24.53;;;15.20;;
6878;SDS011;3478;51.462;7.338;2022-12-13T10:43:10;18.93;;;14.13;;
6878;SDS011;3478;51.462;7.338;2022-12-13T10:48:17;28.83;;;15.90;;
6878;SDS011;3478;51.462;7.338;2022-12-13T10:53:22;24.80;;;13.90;;
6878;SDS011;3478;51.462;7.338;2022-12-13T10:58:33;22.43;;;13.50;;
6878;SDS011;3478;51.462;7.338;2022-12-13T11:03:37;22.43;;;13.50;;
6878;SDS011;3478;51.462;7.338;2022-12-13T11:08:40;19.60;;;11.60;;
6878;SDS011;3478;51.462;7.338;2022-12-13T11:13:43;21.67;;;14.63;;
6878;SDS011;3478;51.462;7.338;2022-12-13T11:18:48;25.47;;;12.93;;
6878;SDS011;3478;51.462;7.338;2022-12-13T11:23:54;24.07;;;14.30;;
6878;SDS011;3478;51.462;7.338;2022-12-13T11:34:29;26.93;;;14.80;;
6878;SDS011;3478;51.462;7.338;2022-12-13T11:39:42;22.43;;;13.93;;
6878;SDS011;3478;51.462;7.338;2022-12-13T11:44:51;22.07;;;13.77;;
6878;SDS011;3478;51.462;7.338;2022-12-13T11:49:59;25.87;;;15.10;;
6878;SDS011;3478;51.462;7.338;2022-12-13T11:55:05;20.00;;;15.23;;
6878;SDS011;3478;51.462;7.338;2022-12-13T12:00:19;23.97;;;13.83;;
6878;SDS011;3478;51.462;7.338;2022-12-13T12:05:31;21.57;;;13.03;;
6878;SDS011;3478;51.462;7.338;2022-12-13T12:10:37;20.30;;;12.43;;
6878;SDS011;3478;51.462;7.338;2022-12-13T12:15:43;25.70;;;10.50;;
6878;SDS011;3478;51.462;7.338;2022-12-13T12:20:56;21.13;;;12.03;;
6878;SDS011;3478;51.462;7.338;2022-12-13T12:26:08;12.23;;;8.90;;
6878;SDS011;3478;51.462;7.338;2022-12-13T12:31:14;14.27;;;10.10;;
6878;SDS011;3478;51.462;7.338;2022-12-13T12:36:30;17.83;;;10.77;;
6878;SDS011;3478;51.462;7.338;2022-12-13T12:41:48;15.87;;;9.40;;
6878;SDS011;3478;51.462;7.338;2022-12-13T12:47:03;21.03;;;9.77;;
6878;SDS011;3478;51.462;7.338;2022-12-13T12:52:18;16.00;;;9.77;;
6878;SDS011;3478;51.462;7.338;2022-12-13T12:57:29;12.57;;;7.50;;
6878;SDS011;3478;51.462;7.338;2022-12-13T13:02:41;25.73;;;9.27;;
6878;SDS011;3478;51.462;7.338;2022-12-13T13:07:48;19.27;;;8.50;;
6878;SDS011;3478;51.462;7.338;2022-12-13T13:12:57;14.07;;;8.17;;
6878;SDS011;3478;51.462;7.338;2022-12-13T13:17:59;14.63;;;8.30;;
6878;SDS011;3478;51.462;7.338;2022-12-13T13:23:01;12.87;;;8.60;;
6878;SDS011;3478;51.462;7.338;2022-12-13T13:28:16;12.73;;;9.17;;
6878;SDS011;3478;51.462;7.338;2022-12-13T13:43:55;14.70;;;9.87;;
6878;SDS011;3478;51.462;7.338;2022-12-13T13:49:02;17.63;;;10.57;;
6878;SDS011;3478;51.462;7.338;2022-12-13T13:59:51;26.27;;;11.13;;
6878;SDS011;3478;51.462;7.338;2022-12-13T14:11:23;17.37;;;10.23;;
6878;SDS011;3478;51.462;7.338;2022-12-13T14:22:35;16.83;;;11.87;;
6878;SDS011;3478;51.462;7.338;2022-12-13T14:27:44;17.77;;;10.67;;
6878;SDS011;3478;51.462;7.338;2022-12-13T14:32:49;15.00;;;8.97;;
6878;SDS011;3478;51.462;7.338;2022-12-13T14:37:57;18.33;;;9.70;;
6878;SDS011;3478;51.462;7.338;2022-12-13T14:43:00;15.80;;;8.20;;
6878;SDS011;3478;51.462;7.338;2022-12-13T14:48:03;15.50;;;9.27;;
6878;SDS011;3478;51.462;7.338;2022-12-13T14:53:17;17.57;;;10.23;;
6878;SDS011;3478;51.462;7.338;2022-12-13T14:58:24;20.80;;;10.00;;
6878;SDS011;3478;51.462;7.338;2022-12-13T15:03:26;16.03;;;9.77;;
6878;SDS011;3478;51.462;7.338;2022-12-13T15:08:29;14.30;;;9.87;;
6878;SDS011;3478;51.462;7.338;2022-12-13T15:13:36;26.90;;;11.10;;
6878;SDS011;3478;51.462;7.338;2022-12-13T15:18:41;16.60;;;9.80;;
6878;SDS011;3478;51.462;7.338;2022-12-13T15:23:44;23.13;;;13.50;;
6878;SDS011;3478;51.462;7.338;2022-12-13T15:28:48;19.13;;;11.83;;
6878;SDS011;3478;51.462;7.338;2022-12-13T15:33:53;17.67;;;11.30;;
6878;SDS011;3478;51.462;7.338;2022-12-13T15:39:17;22.13;;;14.00;;
6878;SDS011;3478;51.462;7.338;2022-12-13T15:44:19;21.30;;;12.67;;
6878;SDS011;3478;51.462;7.338;2022-12-13T15:49:26;20.70;;;11.73;;
6878;SDS011;3478;51.462;7.338;2022-12-13T15:54:33;26.10;;;15.63;;
6878;SDS011;3478;51.462;7.338;2022-12-13T15:59:35;25.47;;;12.73;;
6878;SDS011;3478;51.462;7.338;2022-12-13T16:04:37;25.40;;;12.03;;
6878;SDS011;3478;51.462;7.338;2022-12-13T16:09:40;20.13;;;13.33;;
6878;SDS011;3478;51.462;7.338;2022-12-13T16:14:48;26.57;;;16.00;;
6878;SDS011;3478;51.462;7.338;2022-12-13T16:19:50;24.03;;;12.80;;
6878;SDS011;3478;51.462;7.338;2022-12-13T16:24:53;26.27;;;15.30;;
6878;SDS011;3478;51.462;7.338;2022-12-13T16:29:56;20.77;;;13.33;;
6878;SDS011;3478;51.462;7.338;2022-12-13T16:34:58;22.93;;;14.30;;
6878;SDS011;3478;51.462;7.338;2022-12-13T16:40:04;28.80;;;14.33;;
6878;SDS011;3478;51.462;7.338;2022-12-13T16:45:24;23.83;;;12.73;;
6878;SDS011;3478;51.462;7.338;2022-12-13T16:50:26;26.17;;;13.20;;
6878;SDS011;3478;51.462;7.338;2022-12-13T16:55:29;27.30;;;14.33;;
6878;SDS011;3478;51.462;7.338;2022-12-13T17:00:31;22.33;;;13.40;;
6878;SDS011;3478;51.462;7.338;2022-12-13T17:05:34;23.73;;;14.00;;
6878;SDS011;3478;51.462;7.338;2022-12-13T17:10:37;24.33;;;11.60;;
6878;SDS011;3478;51.462;7.338;2022-12-13T17:15:40;18.63;;;11.83;;
6878;SDS011;3478;51.462;7.338;2022-12-13T17:20:42;19.77;;;13.37;;
6878;SDS011;3478;51.462;7.338;2022-12-13T17:25:45;24.00;;;12.70;;
6878;SDS011;3478;51.462;7.338;2022-12-13T17:30:47;20.23;;;12.23;;
6878;SDS011;3478;51.462;7.338;2022-12-13T17:35:49;25.33;;;13.90;;
6878;SDS011;3478;51.462;7.338;2022-12-13T17:40:52;31.57;;;18.37;;
6878;SDS011;3478;51.462;7.338;2022-12-13T17:45:54;36.33;;;18.93;;
6878;SDS011;3478;51.462;7.338;2022-12-13T17:50:57;24.10;;;15.60;;
6878;SDS011;3478;51.462;7.338;2022-12-13T17:56:01;27.73;;;14.40;;
6878;SDS011;3478;51.462;7.338;2022-12-13T18:01:08;21.00;;;11.67;;
6878;SDS011;3478;51.462;7.338;2022-12-13T18:06:11;18.13;;;10.53;;
6878;SDS011;3478;51.462;7.338;2022-12-13T18:11:15;19.73;;;10.90;;
6878;SDS011;3478;51.462;7.338;2022-12-13T18:16:18;15.43;;;9.53;;
6878;SDS011;3478;51.462;7.338;2022-12-13T18:21:22;18.30;;;11.70;;
6878;SDS011;3478;51.462;7.338;2022-12-13T18:26:26;19.30;;;12.90;;
6878;SDS011;3478;51.462;7.338;2022-12-13T18:31:28;23.77;;;14.10;;
6878;SDS011;3478;51.462;7.338;2022-12-13T18:36:30;25.90;;;14.90;;
6878;SDS011;3478;51.462;7.338;2022-12-13T18:41:34;21.40;;;13.27;;
6878;SDS011;3478;51.462;7.338;2022-12-13T18:46:36;26.00;;;13.97;;
6878;SDS011;3478;51.462;7.338;2022-12-13T18:51:38;27.20;;;14.60;;
6878;SDS011;3478;51.462;7.338;2022-12-13T18:56:41;23.00;;;12.80;;
6878;SDS011;3478;51.462;7.338;2022-12-13T19:01:43;22.67;;;12.80;;
6878;SDS011;3478;51.462;7.338;2022-12-13T19:06:45;21.77;;;14.33;;
6878;SDS011;3478;51.462;7.338;2022-12-13T19:11:49;22.57;;;13.57;;
6878;SDS011;3478;51.462;7.338;2022-12-13T19:16:50;21.73;;;13.73;;
6878;SDS011;3478;51.462;7.338;2022-12-13T19:21:52;26.37;;;12.83;;
6878;SDS011;3478;51.462;7.338;2022-12-13T19:26:56;20.27;;;13.10;;
6878;SDS011;3478;51.462;7.338;2022-12-13T19:31:58;25.93;;;14.70;;
6878;SDS011;3478;51.462;7.338;2022-12-13T19:37:00;24.40;;;12.87;;
6878;SDS011;3478;51.462;7.338;2022-12-13T19:42:03;19.27;;;12.67;;
6878;SDS011;3478;51.462;7.338;2022-12-13T19:47:05;20.40;;;12.47;;
6878;SDS011;3478;51.462;7.338;2022-12-13T19:52:07;20.00;;;14.70;;
6878;SDS011;3478;51.462;7.338;2022-12-13T19:57:10;25.53;;;14.47;;
6878;SDS011;3478;51.462;7.338;2022-12-13T20:02:12;24.20;;;14.40;;
6878;SDS011;3478;51.462;7.338;2022-12-13T20:07:15;19.43;;;12.20;;
6878;SDS011;3478;51.462;7.338;2022-12-13T20:12:18;19.47;;;14.23;;
6878;SDS011;3478;51.462;7.338;2022-12-13T20:17:22;21.37;;;13.63;;
6878;SDS011;3478;51.462;7.338;2022-12-13T20:22:24;20.13;;;13.63;;
6878;SDS011;3478;51.462;7.338;2022-12-13T20:27:27;22.13;;;15.23;;
6878;SDS011;3478;51.462;7.338;2022-12-13T20:32:29;28.63;;;15.50;;
6878;SDS011;3478;51.462;7.338;2022-12-13T20:37:31;23.03;;;14.33;;
6878;SDS011;3478;51.462;7.338;2022-12-13T20:42:34;29.07;;;16.53;;
6878;SDS011;3478;51.462;7.338;2022-12-13T20:47:36;26.33;;;14.20;;
6878;SDS011;3478;51.462;7.338;2022-12-13T20:52:38;25.93;;;18.27;;
6878;SDS011;3478;51.462;7.338;2022-12-13T20:57:41;18.50;;;14.13;;
6878;SDS011;3478;51.462;7.338;2022-12-13T21:02:43;25.57;;;14.50;;
6878;SDS011;3478;51.462;7.338;2022-12-13T21:07:45;22.53;;;14.50;;
6878;SDS011;3478;51.462;7.338;2022-12-13T21:13:06;19.73;;;14.10;;
6878;SDS011;3478;51.462;7.338;2022-12-13T21:18:08;16.37;;;11.60;;
6878;SDS011;3478;51.462;7.338;2022-12-13T21:23:10;21.57;;;14.00;;
6878;SDS011;3478;51.462;7.338;2022-12-13T21:28:13;24.47;;;12.93;;
6878;SDS011;3478;51.462;7.338;2022-12-13T21:33:15;21.50;;;13.50;;
6878;SDS011;3478;51.462;7.338;2022-12-13T21:38:17;20.90;;;13.10;;
6878;SDS011;3478;51.462;7.338;2022-12-13T21:43:20;22.80;;;13.27;;
6878;SDS011;3478;51.462;7.338;2022-12-13T21:48:36;25.90;;;15.53;;
6878;SDS011;3478;51.462;7.338;2022-12-13T21:53:39;20.20;;;15.10;;
6878;SDS011;3478;51.462;7.338;2022-12-13T21:58:42;29.43;;;16.40;;
6878;SDS011;3478;51.462;7.338;2022-12-13T22:04:02;23.87;;;15.47;;
6878;SDS011;3478;51.462;7.338;2022-12-13T22:09:04;19.63;;;14.20;;
6878;SDS011;3478;51.462;7.338;2022-12-13T22:14:07;23.60;;;14.80;;
6878;SDS011;3478;51.462;7.338;2022-12-13T22:19:10;23.33;;;13.53;;
6878;SDS011;3478;51.462;7.338;2022-12-13T22:24:12;14.40;;;11.00;;
6878;SDS011;3478;51.462;7.338;2022-12-13T22:29:16;15.40;;;10.43;;
6878;SDS011;3478;51.462;7.338;2022-12-13T22:34:18;19.30;;;10.47;;
6878;SDS011;3478;51.462;7.338;2022-12-13T22:39:20;12.60;;;9.07;;
6878;SDS011;3478;51.462;7.338;2022-12-13T22:44:25;11.87;;;9.10;;
6878;SDS011;3478;51.462;7.338;2022-12-13T22:49:27;17.47;;;9.90;;
6878;SDS011;3478;51.462;7.338;2022-12-13T22:54:28;12.47;;;9.03;;
6878;SDS011;3478;51.462;7.338;2022-12-13T22:59:32;14.53;;;10.50;;
6878;SDS011;3478;51.462;7.338;2022-12-13T23:04:33;17.13;;;11.60;;
6878;SDS011;3478;51.462;7.338;2022-12-13T23:09:36;17.60;;;11.10;;
6878;SDS011;3478;51.462;7.338;2022-12-13T23:14:39;23.10;;;14.97;;
6878;SDS011;3478;51.462;7.338;2022-12-13T23:19:41;22.17;;;15.00;;
6878;SDS011;3478;51.462;7.338;2022-12-13T23:24:43;20.83;;;14.90;;
6878;SDS011;3478;51.462;7.338;2022-12-13T23:29:46;18.70;;;12.80;;
6878;SDS011;3478;51.462;7.338;2022-12-13T23:34:48;18.33;;;12.20;;
6878;SDS011;3478;51.462;7.338;2022-12-13T23:39:50;23.60;;;13.40;;
6878;SDS011;3478;51.462;7.338;2022-12-13T23:44:53;21.37;;;12.63;;
6878;SDS011;3478;51.462;7.338;2022-12-13T23:49:55;20.77;;;13.17;;
6878;SDS011;3478;51.462;7.338;2022-12-13T23:54:57;20.50;;;12.57;;
